Terminal Aerodrome Forecast
Issued by NWS

Home | Current Version | Previous Version | Text Only | Print | Product List | Glossary On
Versions: 1 2 3 4 5 6 7 8 9 10 11 12 13
000
FTUS41 KBGM 231349 AAA
TAFRME
TAF AMD
KRME 231349Z 2314/2412 11007KT P6SM BKN025 BKN200
     FM231800 13010KT P6SM BKN035
     FM240200 13012G18KT P6SM OVC040
     FM240900 13014G23KT 4SM -SHRA BR OVC030=

USA.gov is the U.S. government's official web portal to all federal, state and local government web resources and services.